sensor_id;sensor_type;location;lat;lon;timestamp;pressure;altitude;pressure_sealevel;temperature;humidity
49979;BME280;35869;50.990;6.962;2023-08-06T00:03:13;100123.03;;;15.91;100.00
49979;BME280;35869;50.990;6.962;2023-08-06T00:08:17;100121.59;;;15.87;100.00
49979;BME280;35869;50.990;6.962;2023-08-06T00:13:36;100127.19;;;15.83;100.00
49979;BME280;35869;50.990;6.962;2023-08-06T00:19:18;100112.41;;;15.82;100.00
49979;BME280;35869;50.990;6.962;2023-08-06T00:25:01;100122.31;;;15.78;100.00
49979;BME280;35869;50.990;6.962;2023-08-06T00:30:44;100124.44;;;15.73;100.00
49979;BME280;35869;50.990;6.962;2023-08-06T00:35:48;100125.47;;;15.70;100.00
49979;BME280;35869;50.990;6.962;2023-08-06T00:40:54;100120.00;;;15.62;100.00
49979;BME280;35869;50.990;6.962;2023-08-06T00:46:00;100124.84;;;15.56;100.00
49979;BME280;35869;50.990;6.962;2023-08-06T00:51:05;100123.16;;;15.55;100.00
49979;BME280;35869;50.990;6.962;2023-08-06T00:56:06;100115.53;;;15.52;100.00
49979;BME280;35869;50.990;6.962;2023-08-06T01:01:09;100121.34;;;15.44;100.00
49979;BME280;35869;50.990;6.962;2023-08-06T01:06:38;100123.97;;;15.44;100.00
49979;BME280;35869;50.990;6.962;2023-08-06T01:11:59;100113.69;;;15.41;100.00
49979;BME280;35869;50.990;6.962;2023-08-06T01:17:05;100102.63;;;15.37;100.00
49979;BME280;35869;50.990;6.962;2023-08-06T01:22:14;100106.41;;;15.33;100.00
49979;BME280;35869;50.990;6.962;2023-08-06T01:27:48;100095.81;;;15.35;100.00
49979;BME280;35869;50.990;6.962;2023-08-06T01:33:16;100100.56;;;15.30;100.00
49979;BME280;35869;50.990;6.962;2023-08-06T01:38:19;100097.59;;;15.34;100.00
49979;BME280;35869;50.990;6.962;2023-08-06T01:43:20;100095.94;;;15.33;100.00
49979;BME280;35869;50.990;6.962;2023-08-06T01:48:45;100084.50;;;15.34;100.00
49979;BME280;35869;50.990;6.962;2023-08-06T01:53:54;100078.56;;;15.32;100.00
49979;BME280;35869;50.990;6.962;2023-08-06T01:58:54;100070.22;;;15.27;100.00
49979;BME280;35869;50.990;6.962;2023-08-06T02:03:56;100065.69;;;15.29;100.00
49979;BME280;35869;50.990;6.962;2023-08-06T02:08:56;100059.75;;;15.27;100.00
49979;BME280;35869;50.990;6.962;2023-08-06T02:13:56;100044.38;;;15.23;100.00
49979;BME280;35869;50.990;6.962;2023-08-06T02:18:56;100053.50;;;15.17;100.00
49979;BME280;35869;50.990;6.962;2023-08-06T02:23:57;100052.69;;;15.16;100.00
49979;BME280;35869;50.990;6.962;2023-08-06T02:28:57;100050.19;;;15.15;100.00
49979;BME280;35869;50.990;6.962;2023-08-06T02:33:57;100044.94;;;15.15;100.00
49979;BME280;35869;50.990;6.962;2023-08-06T02:38:57;100051.00;;;15.15;100.00
49979;BME280;35869;50.990;6.962;2023-08-06T02:43:58;100052.69;;;15.16;100.00
49979;BME280;35869;50.990;6.962;2023-08-06T02:48:58;100040.44;;;15.17;100.00
49979;BME280;35869;50.990;6.962;2023-08-06T02:53:58;100046.41;;;15.19;100.00
49979;BME280;35869;50.990;6.962;2023-08-06T02:58:58;100028.91;;;15.19;100.00
49979;BME280;35869;50.990;6.962;2023-08-06T03:03:58;100027.81;;;15.22;100.00
49979;BME280;35869;50.990;6.962;2023-08-06T03:08:59;100021.75;;;15.22;100.00
49979;BME280;35869;50.990;6.962;2023-08-06T03:13:59;100018.53;;;15.18;100.00
49979;BME280;35869;50.990;6.962;2023-08-06T03:18:59;100023.53;;;15.21;100.00
49979;BME280;35869;50.990;6.962;2023-08-06T03:23:59;100016.66;;;15.20;100.00
49979;BME280;35869;50.990;6.962;2023-08-06T03:29:00;100017.22;;;15.24;100.00
49979;BME280;35869;50.990;6.962;2023-08-06T03:34:00;100010.47;;;15.21;100.00
49979;BME280;35869;50.990;6.962;2023-08-06T03:39:00;100016.41;;;15.23;100.00
49979;BME280;35869;50.990;6.962;2023-08-06T03:44:00;100021.44;;;15.26;100.00
49979;BME280;35869;50.990;6.962;2023-08-06T03:49:00;100017.84;;;15.27;100.00
49979;BME280;35869;50.990;6.962;2023-08-06T03:54:01;100008.22;;;15.28;100.00
49979;BME280;35869;50.990;6.962;2023-08-06T03:59:01;100011.91;;;15.25;100.00
49979;BME280;35869;50.990;6.962;2023-08-06T04:04:04;100014.28;;;15.28;100.00
49979;BME280;35869;50.990;6.962;2023-08-06T04:15:52;100008.09;;;15.29;100.00
49979;BME280;35869;50.990;6.962;2023-08-06T05:06:51;100006.09;;;15.33;100.00
49979;BME280;35869;50.990;6.962;2023-08-06T05:12:39;100007.75;;;15.34;100.00
49979;BME280;35869;50.990;6.962;2023-08-06T05:23:56;100006.69;;;15.36;100.00
49979;BME280;35869;50.990;6.962;2023-08-06T05:35:04;100014.56;;;15.36;100.00
49979;BME280;35869;50.990;6.962;2023-08-06T05:40:05;100020.03;;;15.44;100.00
49979;BME280;35869;50.990;6.962;2023-08-06T05:45:08;100022.53;;;15.46;100.00
49979;BME280;35869;50.990;6.962;2023-08-06T05:50:58;100029.44;;;15.47;100.00
49979;BME280;35869;50.990;6.962;2023-08-06T05:56:25;100027.09;;;15.55;100.00
49979;BME280;35869;50.990;6.962;2023-08-06T06:01:25;100020.53;;;15.61;100.00
49979;BME280;35869;50.990;6.962;2023-08-06T06:06:25;100026.41;;;15.64;100.00
49979;BME280;35869;50.990;6.962;2023-08-06T06:11:26;100029.63;;;15.68;100.00
49979;BME280;35869;50.990;6.962;2023-08-06T06:16:34;100033.69;;;15.72;100.00
49979;BME280;35869;50.990;6.962;2023-08-06T06:21:35;100035.22;;;15.75;100.00
49979;BME280;35869;50.990;6.962;2023-08-06T06:26:37;100036.41;;;15.82;100.00
49979;BME280;35869;50.990;6.962;2023-08-06T06:31:38;100041.66;;;15.82;100.00
49979;BME280;35869;50.990;6.962;2023-08-06T06:36:38;100045.03;;;15.84;100.00
49979;BME280;35869;50.990;6.962;2023-08-06T06:41:39;100048.97;;;15.89;100.00
49979;BME280;35869;50.990;6.962;2023-08-06T06:46:39;100048.56;;;15.94;100.00
49979;BME280;35869;50.990;6.962;2023-08-06T06:51:40;100050.84;;;15.98;100.00
49979;BME280;35869;50.990;6.962;2023-08-06T06:56:45;100049.66;;;16.03;100.00
49979;BME280;35869;50.990;6.962;2023-08-06T07:01:46;100047.63;;;16.06;100.00
49979;BME280;35869;50.990;6.962;2023-08-06T07:06:47;100055.13;;;16.11;100.00
49979;BME280;35869;50.990;6.962;2023-08-06T07:11:47;100053.25;;;16.13;100.00
49979;BME280;35869;50.990;6.962;2023-08-06T07:22:13;100064.66;;;16.12;100.00
49979;BME280;35869;50.990;6.962;2023-08-06T07:27:33;100061.94;;;16.13;100.00
49979;BME280;35869;50.990;6.962;2023-08-06T07:32:40;100078.38;;;16.15;100.00
49979;BME280;35869;50.990;6.962;2023-08-06T07:38:00;100075.88;;;16.14;100.00
49979;BME280;35869;50.990;6.962;2023-08-06T07:43:01;100072.91;;;16.18;100.00
49979;BME280;35869;50.990;6.962;2023-08-06T07:48:01;100068.72;;;16.16;100.00
49979;BME280;35869;50.990;6.962;2023-08-06T07:53:02;100074.19;;;16.24;100.00
49979;BME280;35869;50.990;6.962;2023-08-06T07:58:02;100080.16;;;16.26;100.00
49979;BME280;35869;50.990;6.962;2023-08-06T08:03:02;100081.13;;;16.25;100.00
49979;BME280;35869;50.990;6.962;2023-08-06T08:08:03;100081.59;;;16.30;100.00
49979;BME280;35869;50.990;6.962;2023-08-06T08:13:21;100087.78;;;16.29;100.00
49979;BME280;35869;50.990;6.962;2023-08-06T08:18:21;100092.09;;;16.30;100.00
49979;BME280;35869;50.990;6.962;2023-08-06T08:23:21;100099.72;;;16.33;100.00
49979;BME280;35869;50.990;6.962;2023-08-06T08:28:21;100101.38;;;16.34;100.00
49979;BME280;35869;50.990;6.962;2023-08-06T08:33:22;100094.69;;;16.41;100.00
49979;BME280;35869;50.990;6.962;2023-08-06T08:38:32;100095.56;;;16.42;100.00
49979;BME280;35869;50.990;6.962;2023-08-06T08:43:33;100108.63;;;16.53;100.00
49979;BME280;35869;50.990;6.962;2023-08-06T08:48:33;100099.69;;;16.56;100.00
49979;BME280;35869;50.990;6.962;2023-08-06T08:53:35;100107.31;;;16.59;100.00
49979;BME280;35869;50.990;6.962;2023-08-06T08:58:36;100118.41;;;16.62;100.00
49979;BME280;35869;50.990;6.962;2023-08-06T09:03:37;100119.94;;;16.65;100.00
49979;BME280;35869;50.990;6.962;2023-08-06T09:08:43;100126.75;;;16.67;100.00
49979;BME280;35869;50.990;6.962;2023-08-06T09:13:47;100136.16;;;16.70;100.00
49979;BME280;35869;50.990;6.962;2023-08-06T09:18:47;100130.84;;;16.71;100.00
49979;BME280;35869;50.990;6.962;2023-08-06T09:23:47;100138.59;;;16.73;100.00
49979;BME280;35869;50.990;6.962;2023-08-06T09:28:48;100143.09;;;16.71;100.00
49979;BME280;35869;50.990;6.962;2023-08-06T09:33:49;100139.75;;;16.69;100.00
49979;BME280;35869;50.990;6.962;2023-08-06T09:38:49;100147.91;;;16.77;100.00
49979;BME280;35869;50.990;6.962;2023-08-06T09:43:49;100149.91;;;16.73;100.00
49979;BME280;35869;50.990;6.962;2023-08-06T09:48:50;100156.69;;;16.76;100.00
49979;BME280;35869;50.990;6.962;2023-08-06T09:53:51;100168.16;;;16.86;100.00
49979;BME280;35869;50.990;6.962;2023-08-06T09:58:52;100173.88;;;16.91;100.00
49979;BME280;35869;50.990;6.962;2023-08-06T10:03:53;100173.50;;;17.07;100.00
49979;BME280;35869;50.990;6.962;2023-08-06T10:08:54;100178.16;;;17.03;100.00
49979;BME280;35869;50.990;6.962;2023-08-06T10:19:16;100202.72;;;17.02;100.00
49979;BME280;35869;50.990;6.962;2023-08-06T10:24:17;100212.66;;;16.88;100.00
49979;BME280;35869;50.990;6.962;2023-08-06T10:29:44;100216.34;;;16.74;100.00
49979;BME280;35869;50.990;6.962;2023-08-06T10:34:54;100227.94;;;16.71;100.00
49979;BME280;35869;50.990;6.962;2023-08-06T10:39:54;100226.34;;;16.58;100.00
49979;BME280;35869;50.990;6.962;2023-08-06T10:45:18;100237.66;;;16.47;100.00
49979;BME280;35869;50.990;6.962;2023-08-06T10:50:18;100250.19;;;16.43;100.00
49979;BME280;35869;50.990;6.962;2023-08-06T10:55:35;100260.66;;;16.32;100.00
49979;BME280;35869;50.990;6.962;2023-08-06T11:01:04;100267.97;;;16.16;100.00
49979;BME280;35869;50.990;6.962;2023-08-06T11:06:09;100284.59;;;15.92;100.00
49979;BME280;35869;50.990;6.962;2023-08-06T11:11:11;100289.00;;;15.92;100.00
49979;BME280;35869;50.990;6.962;2023-08-06T11:16:24;100303.81;;;15.80;100.00
49979;BME280;35869;50.990;6.962;2023-08-06T11:21:27;100312.06;;;15.63;100.00
49979;BME280;35869;50.990;6.962;2023-08-06T11:26:27;100314.78;;;15.61;100.00
49979;BME280;35869;50.990;6.962;2023-08-06T11:31:31;100323.19;;;15.54;100.00
49979;BME280;35869;50.990;6.962;2023-08-06T11:36:34;100329.28;;;15.41;100.00
49979;BME280;35869;50.990;6.962;2023-08-06T11:41:36;100333.66;;;15.41;100.00
49979;BME280;35869;50.990;6.962;2023-08-06T11:46:49;100344.34;;;15.51;100.00
49979;BME280;35869;50.990;6.962;2023-08-06T11:51:49;100328.84;;;15.47;100.00
49979;BME280;35869;50.990;6.962;2023-08-06T11:56:49;100342.59;;;15.38;100.00
49979;BME280;35869;50.990;6.962;2023-08-06T12:01:50;100348.34;;;15.43;100.00
49979;BME280;35869;50.990;6.962;2023-08-06T12:06:50;100341.44;;;15.42;100.00
49979;BME280;35869;50.990;6.962;2023-08-06T12:11:50;100352.53;;;15.46;100.00
49979;BME280;35869;50.990;6.962;2023-08-06T12:16:50;100353.16;;;15.50;100.00
49979;BME280;35869;50.990;6.962;2023-08-06T12:21:51;100362.91;;;15.35;100.00
49979;BME280;35869;50.990;6.962;2023-08-06T12:26:51;100369.06;;;15.46;100.00
49979;BME280;35869;50.990;6.962;2023-08-06T12:31:51;100374.41;;;15.45;100.00
49979;BME280;35869;50.990;6.962;2023-08-06T12:36:52;100375.78;;;15.51;100.00
49979;BME280;35869;50.990;6.962;2023-08-06T12:41:53;100381.44;;;15.44;100.00
49979;BME280;35869;50.990;6.962;2023-08-06T12:46:53;100381.97;;;15.50;100.00
49979;BME280;35869;50.990;6.962;2023-08-06T12:51:54;100398.22;;;15.42;100.00
49979;BME280;35869;50.990;6.962;2023-08-06T12:56:54;100395.06;;;15.50;100.00
49979;BME280;35869;50.990;6.962;2023-08-06T13:01:55;100405.31;;;15.53;100.00
49979;BME280;35869;50.990;6.962;2023-08-06T13:06:55;100406.50;;;15.49;100.00
49979;BME280;35869;50.990;6.962;2023-08-06T13:11:55;100423.88;;;15.50;100.00
49979;BME280;35869;50.990;6.962;2023-08-06T13:16:55;100423.44;;;15.56;100.00
49979;BME280;35869;50.990;6.962;2023-08-06T13:22:01;100414.94;;;15.65;100.00
49979;BME280;35869;50.990;6.962;2023-08-06T13:27:02;100417.50;;;15.66;100.00
49979;BME280;35869;50.990;6.962;2023-08-06T13:32:02;100430.47;;;15.68;100.00
49979;BME280;35869;50.990;6.962;2023-08-06T13:37:03;100443.03;;;15.76;100.00
49979;BME280;35869;50.990;6.962;2023-08-06T13:42:03;100440.72;;;15.71;100.00
49979;BME280;35869;50.990;6.962;2023-08-06T13:47:03;100444.63;;;15.78;100.00
49979;BME280;35869;50.990;6.962;2023-08-06T13:52:04;100452.25;;;15.81;100.00
49979;BME280;35869;50.990;6.962;2023-08-06T13:57:04;100460.78;;;15.72;100.00
49979;BME280;35869;50.990;6.962;2023-08-06T14:02:04;100459.59;;;15.76;100.00
49979;BME280;35869;50.990;6.962;2023-08-06T14:07:04;100461.25;;;15.90;100.00
49979;BME280;35869;50.990;6.962;2023-08-06T14:12:05;100459.78;;;15.86;100.00
49979;BME280;35869;50.990;6.962;2023-08-06T14:17:05;100464.47;;;15.93;100.00
49979;BME280;35869;50.990;6.962;2023-08-06T14:22:06;100456.69;;;16.05;100.00
49979;BME280;35869;50.990;6.962;2023-08-06T14:27:06;100463.53;;;15.94;100.00
49979;BME280;35869;50.990;6.962;2023-08-06T14:32:06;100477.06;;;15.88;100.00
49979;BME280;35869;50.990;6.962;2023-08-06T14:37:07;100486.19;;;15.95;100.00
49979;BME280;35869;50.990;6.962;2023-08-06T14:42:07;100491.44;;;15.95;100.00
49979;BME280;35869;50.990;6.962;2023-08-06T14:47:07;100482.81;;;15.93;100.00
49979;BME280;35869;50.990;6.962;2023-08-06T14:52:07;100490.81;;;15.92;100.00
49979;BME280;35869;50.990;6.962;2023-08-06T14:57:09;100502.78;;;15.83;100.00
49979;BME280;35869;50.990;6.962;2023-08-06T15:02:09;100508.66;;;15.74;100.00
49979;BME280;35869;50.990;6.962;2023-08-06T15:07:09;100510.22;;;15.77;100.00
49979;BME280;35869;50.990;6.962;2023-08-06T15:12:10;100513.66;;;15.77;100.00
49979;BME280;35869;50.990;6.962;2023-08-06T15:17:10;100514.63;;;15.76;100.00
49979;BME280;35869;50.990;6.962;2023-08-06T15:22:10;100531.81;;;15.80;100.00
49979;BME280;35869;50.990;6.962;2023-08-06T15:27:10;100535.69;;;15.87;100.00
49979;BME280;35869;50.990;6.962;2023-08-06T15:32:11;100532.88;;;15.78;100.00
49979;BME280;35869;50.990;6.962;2023-08-06T15:37:11;100536.44;;;15.89;100.00
49979;BME280;35869;50.990;6.962;2023-08-06T15:42:12;100573.84;;;15.79;100.00
49979;BME280;35869;50.990;6.962;2023-08-06T15:47:13;100567.38;;;15.71;100.00
49979;BME280;35869;50.990;6.962;2023-08-06T15:52:13;100568.38;;;15.69;100.00
49979;BME280;35869;50.990;6.962;2023-08-06T15:57:13;100576.75;;;15.61;100.00
49979;BME280;35869;50.990;6.962;2023-08-06T16:02:13;100579.66;;;15.57;100.00
49979;BME280;35869;50.990;6.962;2023-08-06T16:07:14;100588.47;;;15.56;100.00
49979;BME280;35869;50.990;6.962;2023-08-06T16:12:14;100587.00;;;15.52;100.00
49979;BME280;35869;50.990;6.962;2023-08-06T16:17:15;100590.66;;;15.49;100.00
49979;BME280;35869;50.990;6.962;2023-08-06T16:22:18;100592.53;;;15.47;100.00
49979;BME280;35869;50.990;6.962;2023-08-06T16:27:18;100604.38;;;15.53;100.00
49979;BME280;35869;50.990;6.962;2023-08-06T16:32:19;100603.47;;;15.54;100.00
49979;BME280;35869;50.990;6.962;2023-08-06T16:37:22;100609.84;;;15.50;100.00
49979;BME280;35869;50.990;6.962;2023-08-06T16:42:25;100618.53;;;15.50;100.00
49979;BME280;35869;50.990;6.962;2023-08-06T16:47:31;100620.72;;;15.43;100.00
49979;BME280;35869;50.990;6.962;2023-08-06T16:52:31;100637.56;;;15.39;100.00
49979;BME280;35869;50.990;6.962;2023-08-06T16:57:35;100651.41;;;15.41;100.00
49979;BME280;35869;50.990;6.962;2023-08-06T17:02:35;100658.41;;;15.41;100.00
49979;BME280;35869;50.990;6.962;2023-08-06T17:07:35;100668.47;;;15.34;100.00
49979;BME280;35869;50.990;6.962;2023-08-06T17:13:05;100670.25;;;15.34;100.00
49979;BME280;35869;50.990;6.962;2023-08-06T17:18:26;100682.91;;;15.27;100.00
49979;BME280;35869;50.990;6.962;2023-08-06T17:23:36;100674.34;;;15.11;100.00
49979;BME280;35869;50.990;6.962;2023-08-06T17:28:36;100667.09;;;15.02;100.00
49979;BME280;35869;50.990;6.962;2023-08-06T17:33:37;100679.78;;;15.08;100.00
49979;BME280;35869;50.990;6.962;2023-08-06T17:38:37;100697.00;;;14.98;100.00
49979;BME280;35869;50.990;6.962;2023-08-06T17:43:37;100696.88;;;14.99;100.00
49979;BME280;35869;50.990;6.962;2023-08-06T17:48:37;100691.41;;;14.89;100.00
49979;BME280;35869;50.990;6.962;2023-08-06T17:53:38;100707.84;;;14.91;100.00
49979;BME280;35869;50.990;6.962;2023-08-06T17:58:38;100706.91;;;14.92;100.00
49979;BME280;35869;50.990;6.962;2023-08-06T18:03:38;100705.78;;;14.97;100.00
49979;BME280;35869;50.990;6.962;2023-08-06T18:08:38;100713.47;;;14.85;100.00
49979;BME280;35869;50.990;6.962;2023-08-06T18:13:38;100723.28;;;14.82;100.00
49979;BME280;35869;50.990;6.962;2023-08-06T18:18:39;100732.91;;;14.81;100.00
49979;BME280;35869;50.990;6.962;2023-08-06T18:23:39;100741.78;;;14.79;100.00
49979;BME280;35869;50.990;6.962;2023-08-06T18:28:39;100749.53;;;14.80;100.00
49979;BME280;35869;50.990;6.962;2023-08-06T18:33:39;100749.72;;;14.63;100.00
49979;BME280;35869;50.990;6.962;2023-08-06T18:38:40;100753.84;;;14.67;100.00
49979;BME280;35869;50.990;6.962;2023-08-06T18:43:40;100769.63;;;14.65;100.00
49979;BME280;35869;50.990;6.962;2023-08-06T18:48:40;100782.53;;;14.54;100.00
49979;BME280;35869;50.990;6.962;2023-08-06T18:53:40;100785.41;;;14.50;100.00
49979;BME280;35869;50.990;6.962;2023-08-06T18:58:40;100795.25;;;14.45;100.00
49979;BME280;35869;50.990;6.962;2023-08-06T19:03:41;100811.69;;;14.32;100.00
49979;BME280;35869;50.990;6.962;2023-08-06T19:08:41;100813.63;;;14.29;100.00
49979;BME280;35869;50.990;6.962;2023-08-06T19:13:41;100820.34;;;14.33;100.00
49979;BME280;35869;50.990;6.962;2023-08-06T19:18:41;100818.75;;;14.30;100.00
49979;BME280;35869;50.990;6.962;2023-08-06T19:23:41;100835.56;;;14.26;100.00
49979;BME280;35869;50.990;6.962;2023-08-06T19:28:42;100851.66;;;14.19;100.00
49979;BME280;35869;50.990;6.962;2023-08-06T19:33:42;100854.13;;;14.22;100.00
49979;BME280;35869;50.990;6.962;2023-08-06T19:38:42;100850.09;;;14.16;100.00
49979;BME280;35869;50.990;6.962;2023-08-06T19:43:42;100858.03;;;14.14;100.00
49979;BME280;35869;50.990;6.962;2023-08-06T19:48:43;100866.47;;;14.04;100.00
49979;BME280;35869;50.990;6.962;2023-08-06T19:53:43;100871.84;;;14.01;100.00
49979;BME280;35869;50.990;6.962;2023-08-06T19:58:43;100864.53;;;13.92;100.00
49979;BME280;35869;50.990;6.962;2023-08-06T20:03:43;100885.25;;;13.95;100.00
49979;BME280;35869;50.990;6.962;2023-08-06T20:08:44;100874.75;;;13.96;100.00
49979;BME280;35869;50.990;6.962;2023-08-06T20:13:44;100880.22;;;13.92;100.00
49979;BME280;35869;50.990;6.962;2023-08-06T20:18:44;100877.69;;;13.90;100.00
49979;BME280;35869;50.990;6.962;2023-08-06T20:23:44;100888.91;;;13.92;100.00
49979;BME280;35869;50.990;6.962;2023-08-06T20:28:44;100885.19;;;13.80;100.00
49979;BME280;35869;50.990;6.962;2023-08-06T20:33:45;100896.97;;;13.87;100.00
49979;BME280;35869;50.990;6.962;2023-08-06T20:38:45;100905.41;;;13.77;100.00
49979;BME280;35869;50.990;6.962;2023-08-06T20:43:45;100907.03;;;13.79;100.00
49979;BME280;35869;50.990;6.962;2023-08-06T20:48:45;100905.25;;;13.80;100.00
49979;BME280;35869;50.990;6.962;2023-08-06T20:53:45;100910.72;;;13.75;100.00
49979;BME280;35869;50.990;6.962;2023-08-06T20:58:46;100910.56;;;13.78;100.00
49979;BME280;35869;50.990;6.962;2023-08-06T21:03:46;100914.09;;;13.77;100.00
49979;BME280;35869;50.990;6.962;2023-08-06T21:08:46;100912.59;;;13.73;100.00
49979;BME280;35869;50.990;6.962;2023-08-06T21:13:46;100912.97;;;13.66;100.00
49979;BME280;35869;50.990;6.962;2023-08-06T21:18:47;100915.84;;;13.61;100.00
49979;BME280;35869;50.990;6.962;2023-08-06T21:23:47;100917.81;;;13.73;100.00
49979;BME280;35869;50.990;6.962;2023-08-06T21:28:47;100926.91;;;13.66;100.00
49979;BME280;35869;50.990;6.962;2023-08-06T21:33:47;100927.66;;;13.68;100.00
49979;BME280;35869;50.990;6.962;2023-08-06T21:38:48;100926.13;;;13.64;100.00
49979;BME280;35869;50.990;6.962;2023-08-06T21:43:49;100912.56;;;13.57;100.00
49979;BME280;35869;50.990;6.962;2023-08-06T21:48:50;100923.00;;;13.57;100.00
49979;BME280;35869;50.990;6.962;2023-08-06T21:53:50;100910.03;;;13.56;100.00
49979;BME280;35869;50.990;6.962;2023-08-06T21:58:50;100917.69;;;13.59;100.00
49979;BME280;35869;50.990;6.962;2023-08-06T22:03:50;100913.31;;;13.59;100.00
49979;BME280;35869;50.990;6.962;2023-08-06T22:08:51;100923.56;;;13.47;100.00
49979;BME280;35869;50.990;6.962;2023-08-06T22:13:51;100915.66;;;13.48;100.00
49979;BME280;35869;50.990;6.962;2023-08-06T22:18:51;100917.94;;;13.39;100.00
49979;BME280;35869;50.990;6.962;2023-08-06T22:23:51;100920.00;;;13.32;100.00
49979;BME280;35869;50.990;6.962;2023-08-06T22:28:52;100924.41;;;13.31;100.00
49979;BME280;35869;50.990;6.962;2023-08-06T22:33:52;100927.59;;;13.37;100.00
49979;BME280;35869;50.990;6.962;2023-08-06T22:38:52;100920.84;;;13.32;100.00
49979;BME280;35869;50.990;6.962;2023-08-06T22:43:52;100912.56;;;13.24;100.00
49979;BME280;35869;50.990;6.962;2023-08-06T22:48:52;100912.41;;;13.27;100.00
49979;BME280;35869;50.990;6.962;2023-08-06T22:53:53;100917.03;;;13.22;100.00
49979;BME280;35869;50.990;6.962;2023-08-06T22:58:53;100921.41;;;13.22;100.00
49979;BME280;35869;50.990;6.962;2023-08-06T23:03:53;100911.91;;;13.21;100.00
49979;BME280;35869;50.990;6.962;2023-08-06T23:08:53;100914.63;;;13.18;100.00
49979;BME280;35869;50.990;6.962;2023-08-06T23:13:53;100912.56;;;13.24;100.00
49979;BME280;35869;50.990;6.962;2023-08-06T23:18:54;100915.72;;;13.14;100.00
49979;BME280;35869;50.990;6.962;2023-08-06T23:23:54;100914.84;;;13.13;100.00
49979;BME280;35869;50.990;6.962;2023-08-06T23:28:54;100904.81;;;13.05;100.00
49979;BME280;35869;50.990;6.962;2023-08-06T23:33:54;100912.72;;;13.04;100.00
49979;BME280;35869;50.990;6.962;2023-08-06T23:38:54;100902.59;;;13.15;100.00
49979;BME280;35869;50.990;6.962;2023-08-06T23:43:55;100914.81;;;13.15;100.00
49979;BME280;35869;50.990;6.962;2023-08-06T23:48:55;100908.59;;;13.00;100.00
49979;BME280;35869;50.990;6.962;2023-08-06T23:53:55;100917.78;;;13.07;100.00
49979;BME280;35869;50.990;6.962;2023-08-06T23:58:55;100908.28;;;13.06;100.00
